Capitol Logistics 1905




LIRF
Leonardo da Vinci International Airport
Rome, IT
EDDK
Cologne Bonn Airport
Cologne, DE

Route Details

Aircraft Information
Group: European Fleet
Types: A30F,A31F,B738
Route Data
Demand: D
Distance: 584nm
Duration: 2h 10m
Recm'd Route: SOV7A SOVAN AMTEL IBRID TIPNI KREVA IDREK RESIA UP131 ARGAX Z170 SONOM T163 KOVAN T844 ASKIK T840 GULKO GULK1S
Origin Wx: LIRF 270550Z 07008KT CAVOK 25/14 Q1014 NOSIG
Dest. Wx: EDDK 270520Z AUTO 26015KT 9999 -RADZ OVC014 14/11 Q1020 TEMPO 4000 RADZ BKN012
Notes:

Financial History
Total Freight: 127,106lbs
Average Load: 63,553lbs/flt
Fuel Used: 39,320lbs
Avg. Fuel Used: 19,660lbs/flt
Fuel Expense: $12,257
Avg. Fuel Expense: $6,129
Avg. Fuel Cost: $0.31/lbs
Total Gross Income: $259,423
Pilot Pay: $498
Total Expenses: $35,158
Total Revenue: $211,141
Average Revenue: $129,711.67